Time;durP1;ratioP1;P1;durP2;ratioP2;P2;SDS_P1;SDS_P2;PMS_P1;PMS_P2;Temp;Humidity;BMP_temperature;BMP_pressure;BME280_temperature;BME280_humidity;BME280_pressure;Samples;Min_cycle;Max_cycle;Signal;HPM_P1;HPM_P2
2021/03/19 05:49:18;;;;;;;;;;;;;;;2.10;88.01;99682.75;1731033;82;20182;-40
2021/03/19 05:51:52;;;;;;;;;;;;;;;2.22;87.82;99687.34;1694868;84;20472;-35
2021/03/19 05:54:30;;;;;;;;;;;;;;;2.27;87.49;99693.06;1675171;84;20187;-35
2021/03/19 05:57:09;;;;;;;;;;;;;;;2.29;86.94;99693.95;1692148;83;20547;-40
2021/03/19 05:59:45;;;;;;;;;;;;;;;2.33;86.98;99693.63;1687445;83;20315;-34
2021/03/19 06:02:32;;;;;;;;;;;;;;;2.36;86.62;99689.38;1688576;84;20609;-36
2021/03/19 06:05:13;;;;;;;;;;;;;;;2.42;86.48;99700.70;1684895;84;20190;-34
2021/03/19 06:07:59;;;;;;;;;;;;;;;2.44;86.23;99699.05;1669959;84;20163;-34
2021/03/19 06:10:40;;;;;;;;;;;;;;;2.46;86.22;99709.84;1687791;84;20184;-41
2021/03/19 06:13:13;;;;;;;;;;;;;;;2.48;86.00;99707.29;1688169;83;20486;-33
2021/03/19 06:15:52;;;;;;;;;;;;;;;2.49;85.69;99711.19;1658593;85;20636;-36
2021/03/19 06:18:48;;;;;;;;;;;;;;;2.48;85.67;99713.33;1692493;83;20185;-39
2021/03/19 06:21:32;;;;;;;;;;;;;;;2.51;85.46;99718.58;1689414;83;20247;-34
2021/03/19 06:24:24;;;;;;;;;;;;;;;2.57;85.55;99720.00;1802464;76;20210;-40
2021/03/19 06:27:20;;;;;;;;;;;;;;;2.58;85.62;99720.88;1782723;79;20657;-40
2021/03/19 06:30:29;;;;;;;;;;;;;;;2.63;85.52;99720.14;1798287;78;20366;-40
2021/03/19 06:33:46;;;;;;;;;;;;;;;2.68;85.26;99719.38;1800051;77;20539;-40
2021/03/19 06:45:10;;;;;;;;;;;;;;;2.82;84.71;99729.59;1812149;77;20209;-41
2021/03/19 06:48:10;;;;;;;;;;;;;;;3.00;84.89;99729.11;1810776;77;20206;-35
2021/03/19 06:51:42;;;;;;;;;;;;;;;3.15;84.09;99732.03;1810243;77;20273;-34
2021/03/19 06:54:50;;;;;;;;;;;;;;;3.19;83.29;99732.13;1803666;77;20167;-41
2021/03/19 06:57:46;;;;;;;;;;;;;;;3.23;83.31;99732.18;1808136;77;20276;-41
2021/03/19 07:00:16;;;;;;;;;;;;;;;3.31;83.48;99731.94;1805278;77;20577;-39
2021/03/19 07:02:53;;;;;;;;;;;;;;;3.42;82.90;99736.87;1784135;77;20162;-34
2021/03/19 07:05:36;;;;;;;;;;;;;;;3.46;82.40;99740.84;1804224;77;20183;-34
2021/03/19 07:08:20;;;;;;;;;;;;;;;3.54;82.34;99739.73;1808166;77;20607;-34
2021/03/19 07:10:54;;;;;;;;;;;;;;;3.63;82.12;99741.60;1807324;77;20154;-40
2021/03/19 07:13:34;;;;;;;;;;;;;;;3.71;81.83;99746.09;1809168;77;20173;-35
2021/03/19 07:16:15;;;;;;;;;;;;;;;3.83;81.42;99748.03;1802676;77;20494;-40
2021/03/19 07:19:12;;;;;;;;;;;;;;;3.99;81.12;99749.16;1802681;77;20499;-39
2021/03/19 07:22:10;;;;;;;;;;;;;;;4.08;79.95;99748.04;1800648;77;20206;-40
2021/03/19 07:25:01;;;;;;;;;;;;;;;4.10;79.94;99750.64;1811577;78;20166;-40
2021/03/19 07:28:39;;;;;;;;;;;;;;;4.13;79.35;99751.58;1793418;77;20728;-39
2021/03/19 07:31:31;;;;;;;;;;;;;;;4.20;79.35;99754.72;1809522;77;20186;-40
2021/03/19 07:34:25;;;;;;;;;;;;;;;4.37;79.36;99748.53;1814310;77;20829;-39
2021/03/19 07:37:26;;;;;;;;;;;;;;;4.52;78.97;99755.66;1809722;77;20164;-34
2021/03/19 07:40:37;;;;;;;;;;;;;;;4.58;78.32;99757.08;1810474;77;20202;-34
2021/03/19 07:43:22;;;;;;;;;;;;;;;4.70;78.12;99757.26;1787195;78;20439;-34
2021/03/19 07:46:34;;;;;;;;;;;;;;;4.84;77.63;99757.87;1788253;77;20186;-39
2021/03/19 07:49:46;;;;;;;;;;;;;;;4.93;76.87;99755.39;1797525;78;20164;-34
2021/03/19 07:52:37;;;;;;;;;;;;;;;5.02;76.50;99755.11;1754626;80;20456;-40
2021/03/19 07:55:44;;;;;;;;;;;;;;;5.12;76.28;99753.95;1746094;81;20320;-36
2021/03/19 07:58:34;;;;;;;;;;;;;;;5.21;75.68;99753.62;1740115;80;20286;-34
2021/03/19 08:01:49;;;;;;;;;;;;;;;5.23;75.31;99755.83;1735974;81;20160;-36
2021/03/19 08:04:48;;;;;;;;;;;;;;;5.18;75.23;99760.09;1775092;79;20219;-39
2021/03/19 08:07:41;;;;;;;;;;;;;;;5.20;75.28;99760.09;1758343;81;20190;-36
2021/03/19 08:10:34;;;;;;;;;;;;;;;5.30;75.16;99759.38;1737467;81;20169;-35
2021/03/19 08:13:33;;;;;;;;;;;;;;;5.39;74.46;99759.89;1736679;81;20175;-39
2021/03/19 08:16:18;;;;;;;;;;;;;;;5.46;74.20;99761.73;1759496;81;20208;-39
2021/03/19 08:18:58;;;;;;;;;;;;;;;5.49;74.10;99766.52;1759803;81;20181;-40
2021/03/19 08:21:46;;;;;;;;;;;;;;;5.53;73.92;99764.41;1757947;81;20182;-34
2021/03/19 08:24:45;;;;;;;;;;;;;;;5.59;73.32;99771.41;1751532;81;20486;-41
2021/03/19 08:27:24;;;;;;;;;;;;;;;5.60;72.87;99766.22;1748005;81;20172;-35
2021/03/19 08:29:55;;;;;;;;;;;;;;;5.58;72.82;99762.75;1732025;81;20731;-39
2021/03/19 08:32:46;;;;;;;;;;;;;;;5.61;72.74;99765.36;1745980;81;20186;-34
2021/03/19 08:35:42;;;;;;;;;;;;;;;5.70;72.45;99761.15;1746134;81;20472;-40
2021/03/19 08:38:20;;;;;;;;;;;;;;;5.84;72.24;99767.34;1732198;81;20191;-39
2021/03/19 08:41:00;;;;;;;;;;;;;;;5.94;71.66;99764.47;1752786;81;20170;-35
2021/03/19 08:43:37;;;;;;;;;;;;;;;5.95;71.53;99765.77;1751154;81;20507;-37
2021/03/19 08:46:23;;;;;;;;;;;;;;;6.02;71.13;99771.45;1745167;80;20197;-34
2021/03/19 08:48:57;;;;;;;;;;;;;;;5.99;69.81;99767.98;1746306;80;20274;-33
2021/03/19 08:51:32;;;;;;;;;;;;;;;5.95;70.35;99771.39;1752041;81;20196;-40
2021/03/19 08:54:18;;;;;;;;;;;;;;;6.04;70.91;99764.58;1744870;80;20533;-41
2021/03/19 08:56:49;;;;;;;;;;;;;;;6.17;70.04;99765.98;1745110;81;20450;-37
2021/03/19 08:59:39;;;;;;;;;;;;;;;6.24;69.81;99769.95;1744282;80;20169;-35
2021/03/19 09:02:34;;;;;;;;;;;;;;;6.34;69.47;99767.02;1766373;80;20157;-35
2021/03/19 09:05:22;;;;;;;;;;;;;;;6.50;69.47;99766.72;1747953;81;20184;-35
2021/03/19 09:08:18;;;;;;;;;;;;;;;6.70;67.71;99766.42;1751383;81;20181;-41
2021/03/19 09:10:55;;;;;;;;;;;;;;;6.73;67.84;99761.27;1754327;81;20548;-41
2021/03/19 09:18:37;;;;;;;;;;;;;;;6.90;67.07;99765.28;1690017;83;20577;-35
2021/03/19 09:22:30;;;;;;;;;;;;;;;7.02;67.39;99767.08;1697018;83;20778;-34
2021/03/19 09:25:52;;;;;;;;;;;;;;;7.16;67.00;99761.52;1700692;82;20245;-35
2021/03/19 09:29:10;;;;;;;;;;;;;;;7.30;66.73;99757.67;1699430;82;20176;-41
2021/03/19 09:40:48;;;;;;;;;;;;;;;7.58;65.79;99765.16;1698958;83;20557;-34
2021/03/19 09:43:38;;;;;;;;;;;;;;;7.76;65.45;99767.83;1696012;83;20546;-39
2021/03/19 09:46:17;;;;;;;;;;;;;;;7.81;64.29;99775.22;1653730;84;20557;-34
2021/03/19 09:49:05;;;;;;;;;;;;;;;7.86;64.25;99771.33;1698699;83;20191;-40
2021/03/19 09:51:42;;;;;;;;;;;;;;;8.06;64.36;99768.77;1814222;76;20259;-39
2021/03/19 09:54:30;;;;;;;;;;;;;;;8.21;63.45;99768.80;1808373;77;20479;-34
2021/03/19 09:57:05;;;;;;;;;;;;;;;8.37;63.43;99771.89;1815269;77;20149;-40
2021/03/19 09:59:35;;;;;;;;;;;;;;;8.59;62.66;99772.77;1813332;77;20285;-41
2021/03/19 10:02:25;;;;;;;;;;;;;;;8.70;61.29;99770.16;1813091;77;20432;-40
2021/03/19 10:04:53;;;;;;;;;;;;;;;8.71;61.14;99770.16;1819708;77;20184;-35
2021/03/19 10:07:23;;;;;;;;;;;;;;;8.76;60.64;99774.94;1814659;77;20797;-35
2021/03/19 10:09:58;;;;;;;;;;;;;;;8.73;60.50;99774.05;1807929;77;20185;-37
2021/03/19 10:12:34;;;;;;;;;;;;;;;8.71;60.41;99764.94;1807115;77;20447;-34
2021/03/19 10:15:14;;;;;;;;;;;;;;;8.77;60.17;99767.98;1806168;77;20185;-40
2021/03/19 10:17:54;;;;;;;;;;;;;;;8.82;60.60;99761.45;1812841;77;20209;-40
2021/03/19 10:24:57;;;;;;;;;;;;;;;9.11;59.16;99762.27;1720953;81;20201;-40
2021/03/19 10:28:31;;;;;;;;;;;;;;;9.13;58.81;99768.78;1722307;81;20242;-39
2021/03/19 10:32:11;;;;;;;;;;;;;;;9.30;57.53;99761.33;1726604;81;20189;-34
2021/03/19 10:35:49;;;;;;;;;;;;;;;9.44;56.72;99758.66;1726254;81;20278;-36
2021/03/19 10:38:51;;;;;;;;;;;;;;;9.47;56.80;99756.05;1726658;81;20167;-40
2021/03/19 10:41:48;;;;;;;;;;;;;;;9.62;55.95;99752.48;1721113;81;20693;-40
2021/03/19 10:44:27;;;;;;;;;;;;;;;9.72;56.50;99750.70;1702221;81;20651;-34
2021/03/19 10:47:17;;;;;;;;;;;;;;;9.90;56.13;99745.38;1725806;81;20267;-34
2021/03/19 10:49:55;;;;;;;;;;;;;;;10.18;55.17;99732.99;1728956;81;20160;-35
2021/03/19 10:52:39;;;;;;;;;;;;;;;10.49;53.98;99741.48;1730312;81;20268;-34
2021/03/19 11:19:27;;;;;;;;;;;;;;;10.95;45.29;99737.58;1731398;79;20173;-37
2021/03/19 11:22:40;;;;;;;;;;;;;;;10.82;43.65;99743.38;1735648;80;20186;-36
2021/03/19 11:26:39;;;;;;;;;;;;;;;10.59;44.45;99740.53;1731893;80;20552;-35
2021/03/19 11:29:39;;;;;;;;;;;;;;;10.41;45.15;99747.67;1734104;80;20183;-38
2021/03/19 11:33:12;;;;;;;;;;;;;;;10.12;44.54;99740.88;1736192;80;20218;-41
2021/03/19 11:36:48;;;;;;;;;;;;;;;9.95;41.64;99750.13;1732899;80;20174;-36
2021/03/19 11:40:36;;;;;;;;;;;;;;;9.84;42.35;99753.24;1732735;80;20273;-40
2021/03/19 11:43:33;;;;;;;;;;;;;;;9.70;40.90;99750.72;1718905;80;20531;-40
2021/03/19 11:46:03;;;;;;;;;;;;;;;9.59;41.28;99754.69;1738270;80;20484;-40
2021/03/19 11:48:40;;;;;;;;;;;;;;;9.35;40.67;99756.09;1738714;80;20167;-41
2021/03/19 11:51:15;;;;;;;;;;;;;;;9.05;42.23;99759.67;1737326;80;20221;-41
2021/03/19 11:53:44;;;;;;;;;;;;;;;8.87;42.76;99758.38;1737586;80;20191;-35
2021/03/19 11:56:18;;;;;;;;;;;;;;;8.66;43.75;99756.24;1720007;80;20568;-36
2021/03/19 11:58:48;;;;;;;;;;;;;;;8.64;44.04;99755.39;1707245;81;20284;-37
2021/03/19 12:01:19;;;;;;;;;;;;;;;8.66;45.17;99751.47;1714158;81;20651;-41
2021/03/19 12:03:53;;;;;;;;;;;;;;;8.74;45.72;99751.88;1729352;80;20158;-35
2021/03/19 12:06:27;;;;;;;;;;;;;;;8.89;46.70;99751.44;1701215;81;20182;-39
2021/03/19 12:08:56;;;;;;;;;;;;;;;8.96;46.45;99756.63;1731280;80;20164;-40
2021/03/19 12:11:27;;;;;;;;;;;;;;;8.99;46.38;99756.64;1735997;80;20197;-35
2021/03/19 12:13:55;;;;;;;;;;;;;;;8.97;46.44;99753.14;1740430;80;20168;-35
2021/03/19 12:16:24;;;;;;;;;;;;;;;8.93;46.35;99759.66;1737519;80;20119;-35
2021/03/19 12:18:52;;;;;;;;;;;;;;;8.86;47.13;99755.34;1731571;80;20184;-40
2021/03/19 12:21:20;;;;;;;;;;;;;;;8.88;46.85;99761.45;1735134;80;20177;-40
2021/03/19 12:23:47;;;;;;;;;;;;;;;8.80;46.44;99758.83;1734908;80;20170;-39
2021/03/19 12:26:17;;;;;;;;;;;;;;;8.67;50.49;99767.54;1735865;80;20180;-35
2021/03/19 12:28:49;;;;;;;;;;;;;;;8.46;53.75;99765.36;1710868;81;20449;-35
2021/03/19 12:31:17;;;;;;;;;;;;;;;8.24;55.84;99766.21;1720889;80;20585;-35
2021/03/19 12:33:46;;;;;;;;;;;;;;;8.06;56.69;99766.16;1737248;80;20214;-34
2021/03/19 12:36:14;;;;;;;;;;;;;;;7.84;57.48;99766.13;1736514;80;20406;-34
2021/03/19 12:38:42;;;;;;;;;;;;;;;7.67;58.95;99769.98;1739711;80;20325;-36
2021/03/19 12:41:11;;;;;;;;;;;;;;;7.52;58.87;99766.44;1726426;80;20510;-34
2021/03/19 12:43:42;;;;;;;;;;;;;;;7.35;59.10;99775.48;1735747;80;20150;-34
2021/03/19 12:46:10;;;;;;;;;;;;;;;7.25;59.11;99771.98;1732813;80;20518;-39
2021/03/19 12:48:38;;;;;;;;;;;;;;;7.23;60.29;99772.38;1732030;80;20459;-39
